Terminal Aerodrome Forecast
Issued by NWS

Home | Current Version | Previous Version | Text Only | Print | Product List | Glossary On
Versions: 1 2 3 4 5 6 7 8 9 10 11 12 13
248
FTUS45 KABQ 232325
TAFGUP
TAF
KGUP 232325Z 2400/2424 30009KT P6SM SCT120
     FM240300 VRB05KT P6SM FEW150
     FM240700 11008KT P6SM FEW100
     FM241900 28009KT P6SM SCT090=

USA.gov is the U.S. government's official web portal to all federal, state and local government web resources and services.